Time;durP1;ratioP1;P1;durP2;ratioP2;P2;SDS_P1;SDS_P2;PMS_P1;PMS_P2;Temp;Humidity;BMP_temperature;BMP_pressure;BME280_temperature;BME280_humidity;BME280_pressure;Samples;Min_cycle;Max_cycle;Signal;HPM_P1;HPM_P2
2022/01/26 00:07:07;;;;;;;11.88;5.75;;;;;;;-5.56;62.14;99483.34;5079989;28;20387;-63
2022/01/26 00:09:33;;;;;;;13.80;5.78;;;;;;;-5.55;61.92;99480.72;5102296;28;20035;-63
2022/01/26 00:11:58;;;;;;;15.18;6.63;;;;;;;-5.52;62.36;99479.81;5102225;28;20038;-63
2022/01/26 00:14:24;;;;;;;13.93;6.65;;;;;;;-5.63;62.48;99477.44;5095582;28;20035;-64
2022/01/26 00:16:50;;;;;;;13.70;5.53;;;;;;;-5.57;62.38;99486.84;5106996;28;20592;-62
2022/01/26 00:19:27;;;;;;;14.88;6.50;;;;;;;-5.53;62.64;99485.94;5096635;28;20630;-63
2022/01/26 00:21:54;;;;;;;13.05;6.65;;;;;;;-5.52;62.51;99490.25;5099823;28;20464;-63
2022/01/26 00:25:09;;;;;;;16.60;6.70;;;;;;;-5.56;62.73;99483.34;5105543;28;20020;-63
2022/01/26 00:27:32;;;;;;;13.02;5.75;;;;;;;-5.60;62.57;99471.28;5080396;28;20036;-63
2022/01/26 00:31:12;;;;;;;13.83;6.40;;;;;;;-5.49;62.16;99490.19;5098663;28;20383;-64
2022/01/26 00:41:03;;;;;;;15.85;6.85;;;;;;;-5.53;62.20;99483.31;5107231;28;20031;-62
2022/01/26 00:43:29;;;;;;;16.27;6.90;;;;;;;-5.62;62.43;99481.75;5097183;28;20106;-63
2022/01/26 00:45:57;;;;;;;15.13;6.47;;;;;;;-5.63;62.85;99487.88;5098993;28;20127;-62
2022/01/26 00:48:23;;;;;;;16.13;7.10;;;;;;;-5.63;62.96;99488.69;5104468;28;20068;-62
2022/01/26 00:50:52;;;;;;;14.82;7.30;;;;;;;-5.67;62.66;99488.78;5107019;28;20494;-62
2022/01/26 00:53:22;;;;;;;14.90;7.10;;;;;;;-5.68;63.00;99490.56;5100459;28;20032;-62
2022/01/26 00:55:47;;;;;;;16.65;7.05;;;;;;;-5.68;62.43;99493.16;5103552;28;20035;-62
2022/01/26 00:58:13;;;;;;;14.57;6.72;;;;;;;-5.71;63.20;99484.53;5090413;28;20387;-64
2022/01/26 01:00:38;;;;;;;14.18;6.43;;;;;;;-5.86;63.03;99459.59;5096596;28;20051;-64
2022/01/26 01:03:04;;;;;;;15.30;7.07;;;;;;;-5.80;63.07;99476.00;5108446;28;20533;-63
2022/01/26 01:05:38;;;;;;;15.00;6.43;;;;;;;-5.97;63.27;99452.88;5101793;28;20035;-61
2022/01/26 01:08:09;;;;;;;12.88;6.43;;;;;;;-5.79;63.25;99480.31;5102332;28;20448;-62
2022/01/26 01:10:35;;;;;;;17.50;7.22;;;;;;;-5.87;63.18;99460.50;5111020;28;20023;-63
2022/01/26 01:13:01;;;;;;;15.10;6.50;;;;;;;-5.76;63.52;99490.69;5097396;28;20019;-62
2022/01/26 01:15:28;;;;;;;13.63;6.50;;;;;;;-5.73;63.06;99487.19;5105152;28;20110;-63
2022/01/26 01:18:05;;;;;;;15.70;6.85;;;;;;;-5.74;63.23;99481.97;5105657;28;20111;-62
2022/01/26 01:23:56;;;;;;;16.75;7.45;;;;;;;-5.70;63.02;99484.50;5084348;28;20471;-63
2022/01/26 01:29:08;;;;;;;12.73;6.10;;;;;;;-5.90;63.12;99432.75;5110947;28;20032;-62
2022/01/26 01:31:53;;;;;;;14.52;6.65;;;;;;;-5.58;62.48;99482.53;5100809;28;20047;-61
2022/01/26 01:34:27;;;;;;;16.90;7.60;;;;;;;-5.60;62.93;99482.59;5098639;28;20118;-62
2022/01/26 01:36:54;;;;;;;16.02;7.15;;;;;;;-5.64;62.64;99475.72;5110512;28;20042;-61
2022/01/26 01:39:22;;;;;;;14.40;6.72;;;;;;;-5.69;63.10;99473.19;5100301;28;20027;-62
2022/01/26 01:41:50;;;;;;;14.63;6.88;;;;;;;-5.68;63.01;99479.25;5103041;28;20647;-63
2022/01/26 01:44:16;;;;;;;15.10;6.90;;;;;;;-5.77;62.98;99475.09;5107477;28;20031;-63
2022/01/26 01:46:43;;;;;;;16.00;7.78;;;;;;;-5.75;62.95;99483.75;5096717;28;20514;-63
2022/01/26 01:49:11;;;;;;;17.38;7.38;;;;;;;-5.80;62.86;99486.44;5110998;28;20162;-62
2022/01/26 01:51:41;;;;;;;15.75;6.93;;;;;;;-5.84;63.34;99489.13;5104232;28;20072;-63
2022/01/26 01:54:14;;;;;;;16.27;7.10;;;;;;;-5.89;63.47;99484.00;5105892;28;20035;-61
2022/01/26 01:56:43;;;;;;;16.92;8.10;;;;;;;-5.97;63.05;99488.47;5096486;28;20475;-61
2022/01/26 01:59:09;;;;;;;16.67;7.75;;;;;;;-6.10;63.47;99483.53;5108631;28;20020;-62
2022/01/26 02:01:35;;;;;;;18.15;7.70;;;;;;;-6.11;63.82;99484.44;5101075;28;20031;-64
2022/01/26 02:04:00;;;;;;;14.90;6.72;;;;;;;-6.12;64.18;99487.94;5100040;28;20024;-64
2022/01/26 02:06:26;;;;;;;20.05;7.38;;;;;;;-6.08;64.33;99486.97;5108755;28;20543;-62
2022/01/26 02:08:51;;;;;;;16.40;7.78;;;;;;;-6.15;64.43;99461.88;5095664;28;20031;-62
2022/01/26 02:11:17;;;;;;;17.92;7.57;;;;;;;-5.93;64.21;99485.81;5106534;28;20050;-63
2022/01/26 02:13:54;;;;;;;19.70;7.93;;;;;;;-5.79;63.87;99487.28;5100635;28;20038;-62
2022/01/26 02:16:48;;;;;;;20.33;7.68;;;;;;;-5.72;63.90;99477.59;5096766;28;20115;-62
2022/01/26 02:21:55;;;;;;;20.73;8.32;;;;;;;-5.68;63.23;99459.25;5103010;28;20464;-63
2022/01/26 03:07:08;;;;;;;19.58;8.63;;;;;;;-5.10;62.42;99490.22;5108220;28;20115;-63
2022/01/26 03:09:46;;;;;;;17.73;8.30;;;;;;;-5.05;62.03;99490.13;5099577;28;20406;-61
2022/01/26 03:12:18;;;;;;;19.08;9.13;;;;;;;-5.01;61.98;99502.22;5098281;28;20036;-63
2022/01/26 03:17:22;;;;;;;22.48;9.25;;;;;;;-5.17;62.14;99459.94;5096328;28;20020;-62
2022/01/26 03:19:51;;;;;;;17.15;8.20;;;;;;;-4.98;62.40;99496.94;5099350;28;20547;-62
2022/01/26 03:35:41;;;;;;;25.35;10.05;;;;;;;-4.90;62.14;99500.25;5098487;28;20027;-61
2022/01/26 03:38:08;;;;;;;21.73;9.43;;;;;;;-4.94;62.66;99497.72;5098217;28;20482;-62
2022/01/26 03:40:36;;;;;;;24.45;9.82;;;;;;;-4.97;62.52;99495.19;5107743;28;20410;-64
2022/01/26 03:43:03;;;;;;;21.80;8.80;;;;;;;-4.91;62.56;99502.88;5095187;28;20098;-64
2022/01/26 03:45:28;;;;;;;23.67;9.70;;;;;;;-4.91;62.83;99498.53;5104198;28;20048;-62
2022/01/26 03:47:55;;;;;;;21.80;9.75;;;;;;;-4.95;62.56;99494.25;5101950;28;20046;-62
2022/01/26 03:50:22;;;;;;;20.40;9.50;;;;;;;-4.88;63.14;99500.19;5108299;28;20154;-62
2022/01/26 03:52:47;;;;;;;25.77;9.70;;;;;;;-4.85;62.59;99496.66;5094303;28;20040;-62
2022/01/26 03:55:13;;;;;;;23.48;9.95;;;;;;;-4.80;62.50;99500.91;5105622;28;20479;-62
2022/01/26 03:57:38;;;;;;;25.33;9.88;;;;;;;-4.78;62.94;99499.13;5098026;28;20470;-61
2022/01/26 04:00:07;;;;;;;20.70;9.52;;;;;;;-4.81;62.65;99493.09;5098238;28;20024;-63
2022/01/26 04:02:33;;;;;;;26.70;11.00;;;;;;;-4.84;62.50;99483.56;5107332;28;20479;-63
2022/01/26 04:05:02;;;;;;;25.20;10.50;;;;;;;-4.76;63.33;99507.78;5093441;28;20462;-62
2022/01/26 04:07:28;;;;;;;28.25;11.82;;;;;;;-4.72;62.80;99499.84;5101501;28;20032;-62
2022/01/26 04:10:01;;;;;;;23.10;10.60;;;;;;;-4.69;62.59;99498.03;5101950;28;20108;-63
2022/01/26 04:12:27;;;;;;;22.98;10.10;;;;;;;-4.67;63.33;99505.84;5111123;28;20038;-63
2022/01/26 04:14:59;;;;;;;28.20;11.15;;;;;;;-4.80;62.96;99479.13;5093535;28;20023;-62
2022/01/26 04:17:24;;;;;;;25.15;10.68;;;;;;;-4.61;63.57;99503.94;5103385;28;20039;-61
2022/01/26 04:19:55;;;;;;;27.70;11.15;;;;;;;-4.59;63.61;99508.28;5100989;28;20036;-62
2022/01/26 04:22:27;;;;;;;27.23;11.23;;;;;;;-4.57;63.64;99502.13;5095588;28;20024;-61
2022/01/26 04:24:54;;;;;;;29.80;11.00;;;;;;;-4.56;63.28;99500.34;5107327;28;20035;-62
2022/01/26 04:27:30;;;;;;;28.23;11.43;;;;;;;-4.57;63.45;99496.03;5101081;28;20024;-61
2022/01/26 04:29:55;;;;;;;27.77;11.10;;;;;;;-4.58;63.97;99495.19;5103019;28;20548;-62
2022/01/26 04:32:21;;;;;;;30.60;11.70;;;;;;;-4.63;64.28;99502.25;5109550;28;20084;-60
2022/01/26 04:34:48;;;;;;;28.90;11.88;;;;;;;-4.65;64.73;99496.19;5097862;28;20085;-62
2022/01/26 04:39:46;;;;;;;30.00;12.55;;;;;;;-4.54;64.36;99502.06;5103482;28;20039;-62
2022/01/26 04:42:18;;;;;;;26.15;11.52;;;;;;;-4.48;64.09;99512.34;5101024;28;20028;-62
2022/01/26 04:44:54;;;;;;;31.45;13.10;;;;;;;-4.45;63.99;99516.66;5110519;28;20467;-62
2022/01/26 04:47:20;;;;;;;33.03;14.05;;;;;;;-4.37;64.46;99511.22;5100771;28;20063;-63
2022/01/26 04:49:45;;;;;;;34.22;12.80;;;;;;;-4.32;64.14;99514.59;5110658;28;20060;-62
2022/01/26 04:52:11;;;;;;;39.40;14.00;;;;;;;-4.33;63.98;99512.88;5100731;28;20551;-62
2022/01/26 04:54:36;;;;;;;33.55;14.20;;;;;;;-4.50;64.28;99468.84;5110405;28;20047;-63
2022/01/26 04:57:02;;;;;;;30.95;13.13;;;;;;;-4.28;64.36;99518.84;5097520;28;20026;-63
2022/01/26 04:59:27;;;;;;;32.10;12.82;;;;;;;-4.21;64.22;99524.78;5106232;27;20139;-62
2022/01/26 05:01:53;;;;;;;33.38;13.52;;;;;;;-4.30;64.50;99502.34;5104749;28;20043;-63
2022/01/26 05:04:18;;;;;;;34.45;14.05;;;;;;;-4.18;64.09;99503.78;5098982;28;20448;-62
2022/01/26 05:06:44;;;;;;;34.97;14.60;;;;;;;-4.30;64.13;99481.44;5110378;28;20042;-63
2022/01/26 05:09:09;;;;;;;36.20;14.25;;;;;;;-4.11;64.12;99499.25;5099166;28;20028;-64
2022/01/26 05:11:38;;;;;;;35.70;14.00;;;;;;;-4.08;64.17;99501.81;5103748;28;20032;-64
2022/01/26 05:14:05;;;;;;;35.75;14.30;;;;;;;-4.27;64.49;99473.50;5105042;28;20519;-64
2022/01/26 05:16:31;;;;;;;33.22;13.75;;;;;;;-4.06;64.38;99503.47;5097488;28;20024;-63
2022/01/26 05:18:57;;;;;;;31.95;14.32;;;;;;;-4.01;64.31;99507.72;5110680;28;20081;-62
2022/01/26 05:21:24;;;;;;;36.90;15.82;;;;;;;-4.04;64.68;99500.81;5098458;28;20035;-62
2022/01/26 05:23:50;;;;;;;39.25;15.70;;;;;;;-3.96;64.59;99509.31;5102838;28;20036;-61
2022/01/26 05:26:17;;;;;;;35.58;14.45;;;;;;;-3.99;64.44;99493.72;5094281;28;20050;-63
2022/01/26 05:28:42;;;;;;;34.88;13.15;;;;;;;-3.91;64.52;99506.59;5095844;28;20080;-64
2022/01/26 05:31:08;;;;;;;35.95;13.77;;;;;;;-3.91;64.50;99506.59;5098211;28;20024;-63
2022/01/26 05:33:33;;;;;;;30.13;13.10;;;;;;;-3.91;64.66;99501.38;5102998;28;20036;-63
2022/01/26 05:35:59;;;;;;;30.17;13.48;;;;;;;-3.95;64.29;99497.97;5092616;28;20070;-63
2022/01/26 05:38:24;;;;;;;32.97;13.18;;;;;;;-3.95;64.66;99495.34;5092186;28;20098;-64
2022/01/26 05:40:50;;;;;;;36.95;13.43;;;;;;;-3.95;64.97;99500.56;5094088;28;20380;-63
2022/01/26 05:43:17;;;;;;;31.33;13.90;;;;;;;-3.97;64.90;99501.53;5092703;28;20054;-63
2022/01/26 05:45:48;;;;;;;37.53;14.93;;;;;;;-3.94;64.83;99504.91;5092603;28;20117;-62
2022/01/26 05:48:14;;;;;;;34.38;14.55;;;;;;;-3.93;64.97;99509.25;5093045;28;20036;-62
2022/01/26 05:50:49;;;;;;;36.20;14.73;;;;;;;-3.92;65.20;99504.88;5091366;28;20101;-62
2022/01/26 05:53:16;;;;;;;36.78;13.65;;;;;;;-3.91;65.22;99501.38;5092521;28;20016;-62
2022/01/26 05:55:42;;;;;;;36.13;14.27;;;;;;;-3.90;65.24;99503.06;5092248;28;20056;-62
2022/01/26 05:58:07;;;;;;;34.60;14.10;;;;;;;-4.02;65.01;99475.50;5093164;28;20062;-62
2022/01/26 06:00:33;;;;;;;30.83;13.65;;;;;;;-3.84;65.11;99504.69;5093196;28;20020;-61
2022/01/26 06:02:58;;;;;;;34.97;13.10;;;;;;;-3.87;65.09;99505.59;5095898;28;20027;-61
2022/01/26 06:05:24;;;;;;;31.10;12.88;;;;;;;-3.80;65.23;99509.78;5106028;28;20032;-62
2022/01/26 06:07:50;;;;;;;36.35;14.15;;;;;;;-4.02;65.54;99467.66;5103158;28;20116;-64
2022/01/26 06:10:15;;;;;;;32.35;13.35;;;;;;;-3.82;65.25;99503.72;5098437;28;20102;-63
2022/01/26 06:12:41;;;;;;;29.88;13.00;;;;;;;-3.85;65.35;99489.88;5109030;28;20436;-65
2022/01/26 06:15:06;;;;;;;35.30;14.55;;;;;;;-3.69;65.38;99506.88;5097074;28;20038;-65
2022/01/26 06:17:32;;;;;;;29.55;13.23;;;;;;;-3.67;64.58;99510.28;5104210;28;20051;-64
2022/01/26 06:19:58;;;;;;;35.22;14.07;;;;;;;-3.71;65.00;99515.69;5103139;28;20103;-64
2022/01/26 06:22:23;;;;;;;30.63;13.32;;;;;;;-3.72;65.21;99503.50;5096214;28;20404;-62
2022/01/26 06:24:49;;;;;;;33.95;13.02;;;;;;;-3.64;64.80;99510.22;5108525;28;20143;-64
2022/01/26 06:27:14;;;;;;;29.58;13.52;;;;;;;-3.62;64.92;99510.19;5098278;28;20028;-62
2022/01/26 06:29:40;;;;;;;27.52;12.32;;;;;;;-3.76;64.91;99474.78;5100815;28;20043;-64
2022/01/26 06:32:06;;;;;;;31.50;13.43;;;;;;;-3.57;64.96;99510.06;5105709;28;20104;-64
2022/01/26 06:34:32;;;;;;;28.25;12.93;;;;;;;-3.53;64.69;99514.31;5096029;28;20032;-63
2022/01/26 06:36:57;;;;;;;31.05;13.50;;;;;;;-3.44;64.40;99516.66;5109204;28;20124;-65
2022/01/26 06:39:23;;;;;;;28.88;12.23;;;;;;;-3.39;64.72;99509.53;5099127;28;20028;-64
2022/01/26 06:41:54;;;;;;;32.42;13.27;;;;;;;-3.36;64.43;99513.81;5101562;28;20046;-63
2022/01/26 06:44:34;;;;;;;34.08;13.70;;;;;;;-3.40;64.38;99518.28;5107434;28;20477;-63
2022/01/26 06:47:47;;;;;;;30.08;13.35;;;;;;;-3.48;64.87;99494.09;5079059;28;20042;-63
2022/01/26 06:49:46;;;;;;;29.73;12.82;;;;;;;-3.31;64.94;99514.53;5108664;28;20133;-63
2022/01/26 06:52:12;;;;;;;35.30;13.10;;;;;;;-3.29;65.28;99519.75;5096545;28;20032;-64
2022/01/26 06:54:39;;;;;;;34.13;13.35;;;;;;;-3.28;64.90;99521.47;5108836;28;20048;-63
2022/01/26 06:57:04;;;;;;;29.15;12.30;;;;;;;-3.21;65.06;99528.22;5096597;28;20471;-64
2022/01/26 06:59:30;;;;;;;27.52;12.70;;;;;;;-3.18;64.90;99533.38;5103748;28;20048;-62
2022/01/26 07:01:55;;;;;;;29.05;12.88;;;;;;;-3.15;64.95;99527.22;5103208;28;20055;-62
2022/01/26 07:04:21;;;;;;;33.38;13.73;;;;;;;-3.18;64.73;99517.66;5096762;28;20499;-63
2022/01/26 07:06:46;;;;;;;34.92;13.63;;;;;;;-3.09;64.89;99517.41;5108462;28;20072;-63
2022/01/26 07:09:12;;;;;;;30.40;12.70;;;;;;;-2.96;64.54;99523.16;5096701;28;20020;-64
2022/01/26 07:11:37;;;;;;;34.17;13.57;;;;;;;-2.95;64.69;99534.47;5101703;28;20038;-64
2022/01/26 07:14:07;;;;;;;28.00;12.45;;;;;;;-2.90;64.74;99529.94;5104778;28;20111;-65
2022/01/26 07:22:01;;;;;;;31.42;13.57;;;;;;;-2.76;64.47;99516.44;5102452;28;20027;-65
2022/01/26 07:24:26;;;;;;;28.42;12.85;;;;;;;-2.68;64.64;99521.44;5096693;28;20032;-63
2022/01/26 07:26:54;;;;;;;29.17;12.02;;;;;;;-2.66;64.02;99517.00;5106741;28;20115;-64
2022/01/26 07:29:22;;;;;;;29.63;12.30;;;;;;;-2.66;63.93;99525.72;5097132;28;20031;-64
2022/01/26 07:31:49;;;;;;;30.25;12.70;;;;;;;-3.03;64.04;99462.22;5100550;28;20100;-62
2022/01/26 07:34:16;;;;;;;25.92;11.63;;;;;;;-2.68;64.55;99532.78;5105674;28;20051;-62
2022/01/26 07:36:44;;;;;;;31.00;12.98;;;;;;;-2.70;64.53;99523.25;5094362;28;20028;-63
2022/01/26 07:39:14;;;;;;;27.35;11.98;;;;;;;-2.60;64.67;99535.19;5104915;28;20108;-63
2022/01/26 07:41:39;;;;;;;28.20;11.95;;;;;;;-2.53;64.65;99535.81;5098823;28;20035;-67
2022/01/26 07:44:05;;;;;;;25.52;11.90;;;;;;;-2.51;64.45;99550.59;5098178;28;20030;-63
2022/01/26 07:46:31;;;;;;;30.70;12.80;;;;;;;-2.51;64.73;99536.66;5107006;28;20055;-63
2022/01/26 07:48:57;;;;;;;27.67;11.45;;;;;;;-2.43;64.30;99539.00;5075834;28;20100;-62
2022/01/26 07:51:23;;;;;;;30.98;12.48;;;;;;;-2.43;64.62;99542.50;5104274;28;20028;-61
2022/01/26 07:53:48;;;;;;;30.58;12.30;;;;;;;-2.46;64.26;99543.44;5106496;28;20505;-64
2022/01/26 07:56:14;;;;;;;30.35;12.57;;;;;;;-2.44;64.54;99548.66;5096895;28;20027;-64
2022/01/26 07:58:41;;;;;;;29.25;13.05;;;;;;;-2.41;65.09;99545.06;5107089;28;20114;-62
2022/01/26 08:01:06;;;;;;;32.63;12.30;;;;;;;-2.40;64.57;99557.28;5094741;28;20034;-66
2022/01/26 08:03:33;;;;;;;25.85;11.45;;;;;;;-2.43;64.48;99552.13;5097598;28;20024;-62
2022/01/26 08:06:04;;;;;;;31.92;12.23;;;;;;;-2.65;64.70;99516.97;5098193;28;20077;-63
2022/01/26 08:08:30;;;;;;;30.55;12.70;;;;;;;-2.39;64.38;99548.53;5103545;28;20036;-61
2022/01/26 08:10:57;;;;;;;32.30;12.07;;;;;;;-2.38;64.95;99556.31;5094272;28;20086;-63
2022/01/26 08:13:23;;;;;;;32.95;13.20;;;;;;;-2.38;64.93;99539.75;5106803;28;20151;-65
2022/01/26 08:15:49;;;;;;;33.30;13.70;;;;;;;-2.31;64.66;99549.97;5096275;28;20107;-64
2022/01/26 08:18:14;;;;;;;34.70;12.90;;;;;;;-2.26;64.68;99548.97;5100455;28;20145;-64
2022/01/26 08:20:40;;;;;;;29.23;11.88;;;;;;;-2.21;64.92;99547.06;5102718;28;20031;-65
2022/01/26 08:23:06;;;;;;;33.60;12.05;;;;;;;-2.25;64.38;99546.28;5092962;28;20380;-65
2022/01/26 08:25:32;;;;;;;27.38;12.52;;;;;;;-2.31;64.53;99533.38;5107285;28;20494;-64
2022/01/26 08:28:26;;;;;;;29.33;12.13;;;;;;;-2.17;64.30;99552.16;5087662;28;20039;-64
2022/01/26 08:30:44;;;;;;;29.58;11.23;;;;;;;-2.07;64.61;99550.06;5095493;28;20072;-62
2022/01/26 08:33:10;;;;;;;28.23;12.77;;;;;;;-2.07;64.27;99552.69;5107237;28;20110;-65
2022/01/26 08:35:36;;;;;;;28.65;11.02;;;;;;;-2.06;63.95;99551.78;5095362;28;20181;-63
2022/01/26 08:38:02;;;;;;;27.15;11.30;;;;;;;-2.08;64.41;99564.09;5100996;28;20027;-63
2022/01/26 08:40:28;;;;;;;30.95;11.52;;;;;;;-2.09;64.52;99561.53;5102842;28;20107;-63
2022/01/26 08:42:54;;;;;;;24.00;10.82;;;;;;;-2.10;64.50;99562.44;5094778;28;20028;-65
2022/01/26 08:45:20;;;;;;;24.75;10.38;;;;;;;-2.10;64.04;99560.66;5109314;28;20105;-64
2022/01/26 08:47:47;;;;;;;25.20;10.45;;;;;;;-2.05;64.63;99568.41;5104461;28;20469;-64
2022/01/26 08:50:13;;;;;;;25.38;10.50;;;;;;;-1.97;64.33;99565.53;5099463;28;20055;-64
2022/01/26 08:52:39;;;;;;;26.42;11.25;;;;;;;-1.99;64.16;99568.19;5096552;28;20036;-63
2022/01/26 08:55:05;;;;;;;24.38;10.63;;;;;;;-1.99;64.25;99576.06;5107249;28;20473;-64
2022/01/26 08:57:31;;;;;;;22.17;10.02;;;;;;;-1.98;64.07;99567.28;5094548;28;20058;-64
2022/01/26 08:59:58;;;;;;;25.40;9.95;;;;;;;-2.07;64.02;99534.34;5109610;28;20059;-63
2022/01/26 09:02:25;;;;;;;23.10;9.82;;;;;;;-1.72;63.63;99578.66;5098677;28;20091;-62
2022/01/26 09:04:50;;;;;;;25.73;10.05;;;;;;;-1.82;63.50;99558.91;5105234;28;20538;-64
2022/01/26 09:07:19;;;;;;;19.13;8.57;;;;;;;-1.68;63.18;99567.19;5093333;28;20120;-64
2022/01/26 09:09:45;;;;;;;21.88;8.82;;;;;;;-1.62;62.63;99581.84;5104730;28;20023;-63
2022/01/26 09:12:19;;;;;;;19.77;8.63;;;;;;;-1.62;63.16;99587.09;5101982;28;20039;-66
2022/01/26 09:14:45;;;;;;;18.50;8.50;;;;;;;-1.67;63.09;99582.03;5099413;28;20040;-64
2022/01/26 09:17:11;;;;;;;17.38;7.75;;;;;;;-1.66;63.36;99581.09;5091723;28;20467;-63
2022/01/26 09:19:38;;;;;;;16.50;7.13;;;;;;;-1.65;63.01;99592.44;5099242;28;20034;-66
2022/01/26 09:22:06;;;;;;;16.30;7.18;;;;;;;-1.61;63.14;99594.94;5114260;28;20024;-63
2022/01/26 09:24:35;;;;;;;13.00;6.70;;;;;;;-1.54;62.95;99578.97;5100719;28;20032;-64
2022/01/26 09:27:02;;;;;;;15.55;7.60;;;;;;;-1.65;62.81;99546.06;5110068;28;20027;-66
2022/01/26 09:29:28;;;;;;;12.75;7.15;;;;;;;-1.38;62.35;99587.16;5095023;28;20039;-65
2022/01/26 09:31:54;;;;;;;13.75;7.05;;;;;;;-1.32;62.78;99582.53;5106380;28;20107;-62
2022/01/26 09:34:22;;;;;;;15.15;7.03;;;;;;;-1.41;61.76;99554.00;5104189;28;20032;-64
2022/01/26 09:36:49;;;;;;;13.38;6.25;;;;;;;-1.24;61.80;99590.16;5097158;28;20039;-62
2022/01/26 09:39:17;;;;;;;11.20;5.60;;;;;;;-1.25;62.11;99587.56;5109701;28;20043;-63
2022/01/26 09:41:48;;;;;;;13.80;6.43;;;;;;;-1.20;61.80;99597.00;5107503;28;20031;-64
2022/01/26 09:44:14;;;;;;;13.40;6.90;;;;;;;-1.20;62.00;99593.53;5103025;28;20023;-64
2022/01/26 09:46:40;;;;;;;12.60;6.10;;;;;;;-1.16;61.87;99584.63;5099153;28;20397;-64
2022/01/26 09:49:07;;;;;;;11.75;6.25;;;;;;;-1.14;61.37;99576.69;5109668;28;20468;-66
2022/01/26 09:51:39;;;;;;;12.93;5.50;;;;;;;-1.14;61.49;99588.06;5096273;28;20020;-63
2022/01/26 09:54:10;;;;;;;9.98;5.45;;;;;;;-1.17;61.37;99596.91;5103088;28;20073;-65
2022/01/26 09:56:36;;;;;;;11.40;5.30;;;;;;;-1.28;60.97;99596.44;5106578;28;20115;-63
2022/01/26 09:59:03;;;;;;;10.35;5.53;;;;;;;-1.26;61.51;99599.00;5096102;28;20055;-63
2022/01/26 10:01:42;;;;;;;10.35;5.30;;;;;;;-1.21;61.70;99602.31;5108989;28;20720;-62
2022/01/26 10:04:26;;;;;;;11.45;5.93;;;;;;;-1.21;61.78;99599.69;5092639;28;20107;-64
2022/01/26 10:07:55;;;;;;;9.98;5.40;;;;;;;-1.21;61.64;99602.31;5108360;28;20023;-61
2022/01/26 10:15:41;;;;;;;8.43;4.85;;;;;;;-1.50;61.86;99607.69;5082534;28;20098;-62
2022/01/26 10:18:17;;;;;;;10.20;5.00;;;;;;;-1.43;61.99;99608.34;5103330;28;20028;-67
2022/01/26 10:20:50;;;;;;;10.52;5.10;;;;;;;-1.35;61.92;99605.41;5106911;28;20110;-63
2022/01/26 10:23:19;;;;;;;10.43;5.38;;;;;;;-1.51;61.13;99563.09;5095292;28;20035;-63
2022/01/26 10:26:00;;;;;;;12.60;5.10;;;;;;;-1.13;61.46;99600.28;5105049;28;20027;-63
2022/01/26 10:28:25;;;;;;;8.23;4.43;;;;;;;-1.15;60.80;99607.38;5104247;28;20104;-62
2022/01/26 10:30:51;;;;;;;10.50;5.23;;;;;;;-1.25;61.16;99605.97;5097046;28;20032;-63
2022/01/26 10:33:17;;;;;;;7.72;4.65;;;;;;;-1.26;61.13;99601.63;5109006;28;20632;-64
2022/01/26 10:35:43;;;;;;;9.70;5.45;;;;;;;-1.22;61.31;99606.72;5098495;28;20051;-63
2022/01/26 10:38:09;;;;;;;8.88;5.30;;;;;;;-1.23;60.82;99604.13;5102997;28;20097;-65
2022/01/26 10:40:37;;;;;;;9.23;4.75;;;;;;;-1.20;60.90;99601.44;5105714;28;20036;-64
2022/01/26 10:43:09;;;;;;;8.48;4.68;;;;;;;-1.44;60.94;99569.88;5095840;28;20035;-64
2022/01/26 10:46:00;;;;;;;9.50;4.65;;;;;;;-1.32;60.92;99585.16;5108294;28;20048;-62
2022/01/26 10:54:17;;;;;;;9.13;4.72;;;;;;;-1.27;60.93;99602.53;5068874;28;20471;-64
2022/01/26 10:56:43;;;;;;;9.93;4.82;;;;;;;-1.42;60.34;99568.03;5106017;28;20027;-64
2022/01/26 10:59:08;;;;;;;9.38;4.85;;;;;;;-1.33;61.05;99596.59;5094285;28;20475;-65
2022/01/26 11:01:35;;;;;;;8.80;4.90;;;;;;;-1.25;60.79;99603.34;5106785;28;20024;-61
2022/01/26 11:04:00;;;;;;;9.23;4.95;;;;;;;-1.22;61.05;99597.97;5098237;28;20024;-61
2022/01/26 11:06:26;;;;;;;8.75;4.70;;;;;;;-1.08;60.99;99594.88;5099578;28;20032;-62
2022/01/26 11:08:57;;;;;;;11.48;5.20;;;;;;;-1.07;60.77;99588.69;5106398;28;20383;-62
2022/01/26 11:11:24;;;;;;;10.18;4.97;;;;;;;-0.96;60.53;99611.97;5093961;28;20333;-57
2022/01/26 11:13:49;;;;;;;10.55;5.05;;;;;;;-0.99;60.31;99602.41;5104681;28;20031;-64
2022/01/26 11:16:18;;;;;;;11.15;5.35;;;;;;;-0.98;60.62;99606.75;5101559;28;20024;-57
2022/01/26 11:18:45;;;;;;;12.10;5.57;;;;;;;-0.97;60.58;99607.59;5096905;28;20020;-61
2022/01/26 11:21:15;;;;;;;12.57;5.50;;;;;;;-0.93;60.76;99598.72;5107844;28;20027;-63
2022/01/26 11:23:40;;;;;;;9.68;4.93;;;;;;;-0.85;60.17;99603.66;5096845;28;20050;-64
2022/01/26 11:26:06;;;;;;;8.25;5.13;;;;;;;-0.93;60.10;99598.72;5102852;28;20456;-63
2022/01/26 11:28:32;;;;;;;10.45;5.43;;;;;;;-0.95;60.90;99597.91;5103590;28;20101;-64
2022/01/26 11:31:04;;;;;;;10.38;5.25;;;;;;;-0.90;60.71;99611.72;5094336;28;20336;-62
2022/01/26 11:33:34;;;;;;;10.23;5.07;;;;;;;-1.07;60.58;99589.53;5078880;28;20374;-63
2022/01/26 11:36:01;;;;;;;10.73;5.13;;;;;;;-1.10;60.94;99581.78;5102333;28;20039;-64
2022/01/26 11:46:52;;;;;;;10.30;5.88;;;;;;;-0.77;60.50;99610.34;5091174;28;20044;-64
2022/01/26 11:49:24;;;;;;;9.85;5.18;;;;;;;-0.72;60.41;99610.19;5107574;28;20416;-64
2022/01/26 11:51:53;;;;;;;10.40;5.28;;;;;;;-0.69;60.23;99612.69;5097267;28;20045;-65
2022/01/26 11:54:28;;;;;;;9.93;5.63;;;;;;;-0.64;60.37;99609.91;5100095;28;20126;-63
2022/01/26 11:57:01;;;;;;;8.75;4.80;;;;;;;-0.67;60.42;99602.13;5105087;28;20069;-65
2022/01/26 11:59:30;;;;;;;7.45;4.57;;;;;;;-0.67;59.71;99613.50;5079510;28;20119;-65
2022/01/26 12:02:08;;;;;;;10.38;4.97;;;;;;;-0.70;59.94;99605.72;5103242;28;20030;-60
2022/01/26 12:04:37;;;;;;;12.10;5.03;;;;;;;-0.74;60.05;99618.13;5103658;28;20028;-66
2022/01/26 12:07:19;;;;;;;10.80;4.85;;;;;;;-0.73;59.93;99606.69;5094542;28;20476;-64
2022/01/26 12:09:44;;;;;;;9.90;5.30;;;;;;;-0.79;59.47;99609.53;5104686;28;20028;-63
2022/01/26 12:12:20;;;;;;;10.60;5.25;;;;;;;-0.69;59.61;99609.22;5100151;28;20027;-64
2022/01/26 12:15:07;;;;;;;8.35;5.10;;;;;;;-0.74;60.37;99615.47;5096270;28;20055;-61
2022/01/26 12:17:38;;;;;;;10.50;4.93;;;;;;;-0.84;60.46;99616.75;5093812;28;20028;-60
2022/01/26 12:37:39;;;;;;;7.82;4.43;;;;;;;-1.24;60.78;99557.75;5107455;28;20109;-60
2022/01/26 12:45:27;;;;;;;12.95;5.75;;;;;;;-0.97;61.78;99631.25;5106817;28;20047;-64
2022/01/26 12:47:55;;;;;;;10.52;5.82;;;;;;;-1.01;62.17;99623.47;5099528;28;20035;-61
2022/01/26 12:50:22;;;;;;;10.30;5.03;;;;;;;-1.09;61.92;99609.75;5103571;28;20103;-63
2022/01/26 12:52:50;;;;;;;9.70;5.25;;;;;;;-1.03;62.16;99625.31;5109442;28;20033;-64
2022/01/26 12:55:41;;;;;;;8.50;4.82;;;;;;;-0.94;62.29;99620.66;5097122;28;20447;-65
2022/01/26 12:58:07;;;;;;;8.70;4.45;;;;;;;-1.18;61.68;99602.22;5100883;28;20044;-65
2022/01/26 13:00:43;;;;;;;9.57;4.65;;;;;;;-1.04;61.53;99631.47;5107261;28;20027;-64
2022/01/26 13:03:14;;;;;;;11.68;5.03;;;;;;;-1.10;61.93;99631.69;5097451;28;20413;-64
2022/01/26 13:05:40;;;;;;;8.63;4.50;;;;;;;-1.17;62.28;99630.22;5107343;28;20030;-64
2022/01/26 13:08:07;;;;;;;8.77;5.20;;;;;;;-1.12;62.51;99636.16;5103092;28;20468;-64
2022/01/26 13:10:33;;;;;;;7.50;4.43;;;;;;;-1.12;61.78;99632.66;5101674;28;20067;-64
2022/01/26 13:13:22;;;;;;;9.90;4.43;;;;;;;-1.07;62.46;99636.00;5110031;28;20035;-63
2022/01/26 13:19:11;;;;;;;4.90;3.03;;;;;;;-1.28;61.73;99611.31;5103474;28;20028;-61
2022/01/26 13:21:43;;;;;;;;;;;;;;;-1.00;61.51;99634.84;5070909;28;20037;-64
2022/01/26 13:27:09;;;;;;;8.05;3.45;;;;;;;-1.20;61.53;99635.56;5109217;28;20032;-63
2022/01/26 13:40:11;;;;;;;12.75;5.30;;;;;;;-1.34;62.53;99625.53;5107064;28;20107;-63
2022/01/26 13:50:58;;;;;;;10.40;5.07;;;;;;;-1.44;63.22;99643.41;5107007;28;20039;-65
2022/01/26 13:53:43;;;;;;;12.43;5.38;;;;;;;-1.47;63.21;99653.97;5096120;27;20135;-63
2022/01/26 13:56:15;;;;;;;9.63;4.53;;;;;;;-1.51;63.95;99647.13;5102555;28;20051;-63
2022/01/26 14:01:15;;;;;;;9.07;4.03;;;;;;;-1.75;63.90;99618.16;5111158;28;20023;-59
2022/01/26 14:03:42;;;;;;;6.20;3.45;;;;;;;-1.46;63.33;99666.19;5098731;28;20087;-64
2022/01/26 14:06:09;;;;;;;8.43;3.42;;;;;;;-1.50;63.78;99670.72;5103442;28;20145;-66
2022/01/26 14:08:35;;;;;;;8.32;3.45;;;;;;;-1.56;63.47;99665.66;5106513;28;20035;-63
2022/01/26 14:11:00;;;;;;;6.15;2.38;;;;;;;-1.54;63.12;99668.22;5096441;28;20042;-60